createdAt,value
2019-05-06T00:00:29.775Z,5.45
2019-05-06T00:02:59.723Z,5.48
2019-05-06T00:05:29.731Z,5.23
2019-05-06T00:07:59.671Z,5.13
2019-05-06T00:10:31.397Z,5.18
2019-05-06T00:13:01.488Z,5.36
2019-05-06T00:15:31.645Z,4.88
2019-05-06T00:18:01.696Z,4.95
2019-05-06T00:20:32.036Z,4.84
2019-05-06T00:23:07.297Z,4.96
2019-05-06T00:25:56.310Z,5.16
2019-05-06T00:28:38.436Z,5.14
2019-05-06T00:31:14.026Z,5.22
2019-05-06T00:33:44.388Z,5.20
2019-05-06T00:36:14.940Z,5.26
2019-05-06T00:38:50.155Z,5.85
2019-05-06T00:41:24.860Z,6.84
2019-05-06T00:43:56.846Z,7.30
2019-05-06T00:46:28.637Z,7.34
2019-05-06T00:48:58.624Z,7.94
2019-05-06T00:51:28.458Z,7.79
2019-05-06T00:54:05.672Z,7.89
2019-05-06T00:56:37.185Z,8.19
2019-05-06T00:59:08.680Z,7.59
2019-05-06T01:01:38.681Z,6.48
2019-05-06T01:04:08.583Z,6.97
2019-05-06T01:06:38.598Z,7.19
2019-05-06T01:09:14.069Z,7.42
2019-05-06T01:11:45.656Z,7.38
2019-05-06T01:14:20.901Z,7.37
2019-05-06T01:16:50.844Z,7.27
2019-05-06T01:19:20.747Z,7.45
2019-05-06T01:21:50.749Z,7.39
2019-05-06T01:24:23.696Z,7.23
2019-05-06T01:26:53.810Z,7.03
2019-05-06T01:29:24.827Z,7.17
2019-05-06T01:31:54.761Z,7.01
2019-05-06T01:34:24.772Z,7.08
2019-05-06T01:36:55.038Z,7.15
2019-05-06T01:39:34.038Z,7.03
2019-05-06T01:42:08.782Z,6.68
2019-05-06T01:44:38.752Z,6.84
2019-05-06T01:47:08.808Z,6.87
2019-05-06T01:49:38.713Z,6.77
2019-05-06T01:52:08.727Z,6.83
2019-05-06T01:54:38.693Z,5.73
2019-05-06T01:57:08.667Z,5.82
2019-05-06T01:59:38.585Z,5.41
2019-05-06T02:02:08.579Z,5.67
2019-05-06T02:04:38.591Z,6.34
2019-05-06T02:07:08.596Z,6.67
2019-05-06T02:09:38.794Z,6.61
2019-05-06T02:12:08.795Z,6.77
2019-05-06T02:14:38.787Z,6.65
2019-05-06T02:17:08.761Z,6.27
2019-05-06T02:19:39.113Z,6.41
2019-05-06T02:22:29.149Z,6.32
2019-05-06T02:25:21.588Z,5.96
2019-05-06T02:27:51.504Z,5.73
2019-05-06T02:30:30.095Z,5.56
2019-05-06T02:33:24.621Z,5.94
2019-05-06T02:36:25.765Z,5.72
2019-05-06T02:38:56.134Z,5.36
2019-05-06T02:41:26.215Z,6.01
2019-05-06T02:43:56.128Z,6.15
2019-05-06T02:46:26.157Z,6.47
2019-05-06T02:49:04.683Z,6.71
2019-05-06T02:51:34.601Z,6.08
2019-05-06T02:54:04.645Z,6.22
2019-05-06T02:56:34.567Z,5.30
2019-05-06T02:59:04.626Z,4.92
2019-05-06T03:01:34.612Z,4.82
2019-05-06T03:04:04.919Z,5.06
2019-05-06T03:06:34.999Z,5.16
2019-05-06T03:09:07.065Z,5.14
2019-05-06T03:11:37.039Z,5.59
2019-05-06T03:14:07.014Z,5.90
2019-05-06T03:16:37.142Z,6.34
2019-05-06T03:19:07.157Z,6.67
2019-05-06T03:21:46.476Z,6.50
2019-05-06T03:24:44.626Z,6.59
2019-05-06T03:27:15.681Z,5.98
2019-05-06T03:29:45.632Z,6.43
2019-05-06T03:32:22.134Z,6.62
2019-05-06T03:35:07.909Z,6.41
2019-05-06T03:37:20.054Z,6.34
2019-05-06T03:39:52.666Z,6.36
2019-05-06T03:42:23.037Z,5.93
2019-05-06T03:44:57.700Z,5.85
2019-05-06T03:47:35.093Z,5.73
2019-05-06T03:50:05.838Z,5.45
2019-05-06T03:52:35.732Z,5.57
2019-05-06T03:55:05.835Z,5.37
2019-05-06T03:57:37.790Z,5.26
2019-05-06T04:00:13.044Z,5.66
2019-05-06T04:02:43.515Z,5.83
2019-05-06T04:05:13.717Z,6.12
2019-05-06T04:07:45.949Z,5.92
2019-05-06T04:10:16.152Z,5.45
2019-05-06T04:12:47.666Z,4.72
2019-05-06T04:15:17.951Z,4.83
2019-05-06T04:17:54.589Z,4.96
2019-05-06T04:20:43.773Z,5.43
2019-05-06T04:23:24.495Z,5.27
2019-05-06T04:26:16.355Z,5.17
2019-05-06T04:28:46.441Z,5.22
2019-05-06T04:31:16.475Z,5.27
2019-05-06T04:34:05.354Z,4.94
2019-05-06T04:36:18.245Z,5.01
2019-05-06T04:38:48.236Z,4.96
2019-05-06T04:41:18.152Z,5.16
2019-05-06T04:46:37.563Z,5.55
2019-05-06T04:49:14.018Z,5.51
2019-05-06T04:51:42.873Z,5.40
2019-05-06T04:54:13.393Z,6.03
2019-05-06T04:56:44.096Z,5.51
2019-05-06T04:59:14.276Z,5.18
2019-05-06T05:01:45.593Z,5.68
2019-05-06T05:04:27.795Z,5.73
2019-05-06T05:06:52.412Z,5.73
2019-05-06T05:09:23.271Z,5.40
2019-05-06T05:12:02.526Z,5.29
2019-05-06T05:14:42.197Z,5.69
2019-05-06T05:17:33.138Z,5.50
2019-05-06T05:20:04.547Z,5.82
2019-05-06T05:22:35.150Z,5.79
2019-05-06T05:25:05.556Z,5.22
2019-05-06T05:27:35.867Z,5.64
2019-05-06T05:30:06.568Z,5.87
2019-05-06T05:32:36.565Z,6.10
2019-05-06T05:35:06.639Z,6.20
2019-05-06T05:37:36.825Z,6.49
2019-05-06T05:40:06.962Z,6.88
2019-05-06T05:43:05.268Z,6.45
2019-05-06T05:45:35.277Z,6.09
2019-05-06T05:48:12.306Z,5.76
2019-05-06T05:50:42.520Z,5.63
2019-05-06T05:53:12.620Z,6.30
2019-05-06T05:55:43.520Z,6.99
2019-05-06T05:58:13.515Z,6.36
2019-05-06T06:00:43.706Z,6.83
2019-05-06T06:03:13.756Z,7.34
2019-05-06T06:05:43.773Z,7.34
2019-05-06T06:08:13.869Z,7.16
2019-05-06T06:10:56.752Z,7.28
2019-05-06T06:13:26.896Z,6.70
2019-05-06T06:16:14.833Z,7.26
2019-05-06T06:19:12.567Z,6.92
2019-05-06T06:21:49.403Z,6.52
2019-05-06T06:24:29.091Z,6.48
2019-05-06T06:26:59.475Z,6.57
2019-05-06T06:29:29.673Z,6.77
2019-05-06T06:32:23.058Z,7.53
2019-05-06T06:35:13.800Z,7.90
2019-05-06T06:37:52.387Z,6.89
2019-05-06T06:40:24.732Z,6.93
2019-05-06T06:42:59.370Z,6.53
2019-05-06T06:45:29.285Z,6.46
2019-05-06T06:47:59.285Z,6.67
2019-05-06T06:50:29.590Z,7.16
2019-05-06T06:52:59.498Z,6.60
2019-05-06T06:55:31.737Z,6.66
2019-05-06T06:58:19.950Z,6.94
2019-05-06T07:01:09.157Z,7.16
2019-05-06T07:03:46.773Z,7.24
2019-05-06T07:06:23.627Z,7.16
2019-05-06T07:08:53.511Z,7.19
2019-05-06T07:11:23.431Z,7.10
2019-05-06T07:13:56.756Z,7.52
2019-05-06T07:16:26.736Z,7.35
2019-05-06T07:18:56.647Z,7.56
2019-05-06T07:21:37.515Z,7.18
2019-05-06T07:24:07.539Z,7.11
2019-05-06T07:26:43.317Z,7.19
2019-05-06T07:29:23.127Z,7.37
2019-05-06T07:31:45.274Z,6.88
2019-05-06T07:34:15.250Z,7.67
2019-05-06T07:36:45.195Z,7.73
2019-05-06T07:39:15.722Z,8.24
2019-05-06T07:41:54.817Z,8.31
2019-05-06T07:44:53.026Z,8.45
2019-05-06T07:47:33.074Z,8.48
2019-05-06T07:50:03.107Z,7.79
2019-05-06T07:52:33.010Z,8.20
2019-05-06T07:55:03.027Z,8.31
2019-05-06T07:57:33.165Z,8.63
2019-05-06T08:00:03.684Z,8.08
2019-05-06T08:02:34.079Z,8.08
2019-05-06T08:05:07.526Z,8.38
2019-05-06T08:07:36.017Z,8.93
2019-05-06T08:10:07.117Z,9.35
2019-05-06T08:12:37.115Z,10.04
2019-05-06T08:15:08.640Z,9.57
2019-05-06T08:17:42.321Z,9.74
2019-05-06T08:20:13.163Z,10.17
2019-05-06T08:23:08.420Z,10.07
2019-05-06T08:25:42.522Z,9.48
2019-05-06T08:28:13.391Z,8.60
2019-05-06T08:30:43.581Z,8.25
2019-05-06T08:33:13.624Z,8.54
2019-05-06T08:35:44.697Z,8.84
2019-05-06T08:38:14.693Z,9.16
2019-05-06T08:40:44.742Z,10.02
2019-05-06T08:43:14.712Z,9.61
2019-05-06T08:45:44.608Z,9.50
2019-05-06T08:48:14.543Z,9.81
2019-05-06T08:51:02.709Z,9.99
2019-05-06T08:53:53.376Z,9.95
2019-05-06T08:56:23.486Z,9.77
2019-05-06T08:58:53.496Z,9.62
2019-05-06T09:01:48.916Z,10.00
2019-05-06T09:04:19.026Z,9.78
2019-05-06T09:06:49.047Z,10.53
2019-05-06T09:09:19.022Z,10.15
2019-05-06T09:11:49.018Z,10.47
2019-05-06T09:14:18.945Z,10.39
2019-05-06T09:16:51.348Z,10.32
2019-05-06T09:19:23.107Z,9.90
2019-05-06T09:21:53.259Z,9.40
2019-05-06T09:24:23.735Z,9.29
2019-05-06T09:26:59.022Z,9.41
2019-05-06T09:29:42.919Z,9.37
2019-05-06T09:32:19.282Z,9.43
2019-05-06T09:34:52.762Z,10.24
2019-05-06T09:37:23.942Z,10.29
2019-05-06T09:39:55.406Z,10.62
2019-05-06T09:42:27.209Z,10.61
2019-05-06T09:44:57.193Z,11.11
2019-05-06T09:47:53.134Z,11.57
2019-05-06T09:50:35.271Z,11.05
2019-05-06T09:53:08.210Z,10.17
2019-05-06T09:56:00.006Z,9.91
2019-05-06T09:58:32.304Z,10.05
2019-05-06T10:01:02.842Z,9.54
2019-05-06T10:03:33.838Z,9.11
2019-05-06T10:06:03.738Z,8.70
2019-05-06T10:08:33.705Z,8.79
2019-05-06T10:11:03.676Z,9.27
2019-05-06T10:13:33.765Z,10.35
2019-05-06T10:16:03.736Z,10.67
2019-05-06T10:18:33.746Z,11.35
2019-05-06T10:21:03.774Z,11.74
2019-05-06T10:23:33.763Z,12.90
2019-05-06T10:26:04.760Z,12.91
2019-05-06T10:28:43.016Z,13.06
2019-05-06T10:31:15.052Z,11.49
2019-05-06T10:34:03.384Z,10.96
2019-05-06T10:37:12.563Z,11.05
2019-05-06T10:39:37.100Z,11.08
2019-05-06T10:42:13.720Z,11.28
2019-05-06T10:44:55.872Z,10.91
2019-05-06T10:47:25.855Z,10.66
2019-05-06T10:49:55.700Z,11.08
2019-05-06T10:52:30.206Z,10.62
2019-05-06T10:55:03.307Z,10.86
2019-05-06T10:57:43.164Z,11.26
2019-05-06T11:00:13.472Z,11.43
2019-05-06T11:03:05.347Z,11.58
2019-05-06T11:05:35.381Z,11.68
2019-05-06T11:08:05.353Z,11.65
2019-05-06T11:10:41.105Z,11.57
2019-05-06T11:13:06.960Z,11.62
2019-05-06T11:15:37.243Z,11.63
2019-05-06T11:18:07.384Z,10.87
2019-05-06T11:20:37.415Z,10.58
2019-05-06T11:23:07.383Z,10.68
2019-05-06T11:25:38.297Z,10.55
2019-05-06T11:28:25.774Z,10.21
2019-05-06T11:31:14.079Z,9.88
2019-05-06T11:33:50.128Z,9.92
2019-05-06T11:36:32.321Z,9.63
2019-05-06T11:39:01.956Z,9.68
2019-05-06T11:41:33.419Z,9.76
2019-05-06T11:44:03.428Z,9.91
2019-05-06T11:46:33.405Z,9.74
2019-05-06T11:49:03.404Z,9.90
2019-05-06T11:51:33.483Z,10.47
2019-05-06T11:54:16.392Z,10.47
2019-05-06T11:56:47.892Z,11.15
2019-05-06T11:59:08.590Z,11.52
2019-05-06T12:01:43.462Z,11.75
2019-05-06T12:04:14.089Z,11.23
2019-05-06T12:06:44.094Z,11.31
2019-05-06T12:09:17.015Z,12.10
2019-05-06T12:11:45.825Z,12.20
2019-05-06T12:14:15.737Z,11.64
2019-05-06T12:16:45.725Z,12.60
2019-05-06T12:19:15.684Z,12.50
2019-05-06T12:21:45.613Z,12.26
2019-05-06T12:24:15.573Z,12.54
2019-05-06T12:26:45.383Z,12.55
2019-05-06T12:29:15.360Z,11.65
2019-05-06T12:31:48.657Z,11.19
2019-05-06T12:34:18.555Z,11.44
2019-05-06T12:36:52.731Z,11.85
2019-05-06T12:39:26.534Z,11.43
2019-05-06T12:42:11.992Z,11.17
2019-05-06T12:44:45.767Z,11.48
2019-05-06T12:47:43.895Z,11.09
2019-05-06T12:50:14.281Z,10.78
2019-05-06T12:52:44.437Z,10.66
2019-05-06T12:55:21.403Z,10.75
2019-05-06T12:57:46.325Z,11.38
2019-05-06T13:00:16.397Z,11.01
2019-05-06T13:02:46.255Z,11.13
2019-05-06T13:05:19.449Z,11.15
2019-05-06T13:07:49.427Z,10.99
2019-05-06T13:10:23.137Z,10.98
2019-05-06T13:13:04.340Z,11.28
2019-05-06T13:15:34.237Z,11.52
2019-05-06T13:18:07.132Z,11.78
2019-05-06T13:20:36.927Z,11.49
2019-05-06T13:23:17.189Z,11.83
2019-05-06T13:25:45.455Z,12.18
2019-05-06T13:28:16.853Z,12.02
2019-05-06T13:30:46.762Z,12.15
2019-05-06T13:33:38.852Z,11.86
2019-05-06T13:36:09.017Z,11.80
2019-05-06T13:38:38.907Z,11.61
2019-05-06T13:41:08.935Z,11.72
2019-05-06T13:43:43.673Z,11.40
2019-05-06T13:46:28.713Z,11.17
2019-05-06T13:49:16.488Z,12.05
2019-05-06T13:51:55.270Z,13.11
2019-05-06T13:54:25.236Z,12.65
2019-05-06T13:56:55.131Z,11.87
2019-05-06T13:59:29.663Z,11.99
2019-05-06T14:02:24.975Z,11.93
2019-05-06T14:04:56.007Z,11.98
2019-05-06T14:07:26.011Z,12.52
2019-05-06T14:09:55.946Z,11.91
2019-05-06T14:12:25.868Z,12.03
2019-05-06T14:14:55.784Z,12.47
2019-05-06T14:17:25.787Z,12.22
2019-05-06T14:19:55.615Z,11.69
2019-05-06T14:22:25.655Z,12.09
2019-05-06T14:25:02.261Z,12.65
2019-05-06T14:27:32.783Z,11.83
2019-05-06T14:30:09.129Z,12.16
2019-05-06T14:32:38.997Z,11.78
2019-05-06T14:35:09.028Z,11.45
2019-05-06T14:37:38.996Z,11.25
2019-05-06T14:40:11.873Z,11.10
2019-05-06T14:42:42.419Z,11.43
2019-05-06T14:45:14.732Z,11.66
2019-05-06T14:47:44.200Z,11.20
2019-05-06T14:50:14.952Z,11.23
2019-05-06T14:52:44.910Z,11.29
2019-05-06T14:55:23.206Z,10.84
2019-05-06T14:57:54.177Z,10.88
2019-05-06T15:00:24.164Z,10.81
2019-05-06T15:02:54.008Z,10.98
2019-05-06T15:05:24.007Z,10.52
2019-05-06T15:07:53.979Z,10.40
2019-05-06T15:10:26.515Z,10.20
2019-05-06T15:12:55.502Z,10.17
2019-05-06T15:15:25.450Z,9.71
2019-05-06T15:17:55.392Z,10.02
2019-05-06T15:20:25.525Z,10.26
2019-05-06T15:22:55.507Z,10.33
2019-05-06T15:25:25.384Z,10.40
2019-05-06T15:27:55.398Z,10.40
2019-05-06T15:30:34.171Z,9.90
2019-05-06T15:33:05.123Z,10.01
2019-05-06T15:35:53.165Z,9.93
2019-05-06T15:38:25.854Z,9.93
2019-05-06T15:40:55.856Z,9.84
2019-05-06T15:43:25.683Z,9.73
2019-05-06T15:45:55.749Z,9.67
2019-05-06T15:48:25.733Z,9.81
2019-05-06T15:50:55.781Z,10.02
2019-05-06T15:53:25.753Z,9.99
2019-05-06T15:55:55.742Z,10.00
2019-05-06T15:58:25.668Z,10.02
2019-05-06T16:00:55.572Z,10.64
2019-05-06T16:03:25.463Z,10.65
2019-05-06T16:05:55.477Z,10.36
2019-05-06T16:08:25.345Z,10.55
2019-05-06T16:10:58.658Z,10.46
2019-05-06T16:13:26.773Z,10.03
2019-05-06T16:15:56.587Z,10.13
2019-05-06T16:18:27.388Z,10.43
2019-05-06T16:20:58.435Z,10.54
2019-05-06T16:23:42.282Z,10.44
2019-05-06T16:26:13.431Z,10.13
2019-05-06T16:28:45.077Z,10.25
2019-05-06T16:31:15.133Z,10.08
2019-05-06T16:33:45.129Z,10.49
2019-05-06T16:36:16.071Z,10.61
2019-05-06T16:38:46.043Z,10.33
2019-05-06T16:41:16.445Z,10.19
2019-05-06T16:43:46.507Z,10.09
2019-05-06T16:46:16.580Z,10.06
2019-05-06T16:48:46.605Z,9.70
2019-05-06T16:51:19.338Z,9.60
2019-05-06T16:53:49.366Z,9.63
2019-05-06T16:56:25.425Z,9.81
2019-05-06T16:58:58.080Z,9.56
2019-05-06T17:01:27.923Z,9.62
2019-05-06T17:04:04.363Z,9.49
2019-05-06T17:06:36.348Z,9.21
2019-05-06T17:09:20.123Z,9.26
2019-05-06T17:11:42.497Z,9.24
2019-05-06T17:14:12.346Z,8.97
2019-05-06T17:16:43.540Z,9.01
2019-05-06T17:19:13.457Z,9.07
2019-05-06T17:21:43.369Z,9.26
2019-05-06T17:24:13.298Z,9.10
2019-05-06T17:26:43.343Z,8.71
2019-05-06T17:29:32.710Z,8.80
2019-05-06T17:32:11.879Z,8.72
2019-05-06T17:34:44.488Z,8.63
2019-05-06T17:37:32.978Z,8.58
2019-05-06T17:40:08.063Z,8.55
2019-05-06T17:42:34.755Z,8.33
2019-05-06T17:45:24.900Z,8.31
2019-05-06T17:47:59.377Z,8.36
2019-05-06T17:50:29.294Z,8.36
2019-05-06T17:52:59.198Z,8.38
2019-05-06T17:55:29.096Z,8.45
2019-05-06T17:57:58.985Z,8.41
2019-05-06T18:00:28.975Z,8.20
2019-05-06T18:02:58.865Z,8.10
2019-05-06T18:05:28.782Z,8.07
2019-05-06T18:07:58.699Z,8.09
2019-05-06T18:10:28.623Z,8.11
2019-05-06T18:12:58.522Z,8.06
2019-05-06T18:15:29.350Z,8.06
2019-05-06T18:18:02.171Z,8.07
2019-05-06T18:20:33.555Z,7.87
2019-05-06T18:23:03.876Z,8.03
2019-05-06T18:25:33.766Z,7.99
2019-05-06T18:28:03.814Z,7.91
2019-05-06T18:30:37.035Z,7.74
2019-05-06T18:33:05.779Z,7.78
2019-05-06T18:35:35.714Z,7.90
2019-05-06T18:38:05.888Z,7.88
2019-05-06T18:40:35.737Z,7.75
2019-05-06T18:43:05.805Z,7.80
2019-05-06T18:45:35.989Z,7.87
2019-05-06T18:48:05.994Z,7.87
2019-05-06T18:50:36.008Z,7.90
2019-05-06T18:53:05.978Z,7.80
2019-05-06T18:55:35.967Z,7.84
2019-05-06T18:58:05.949Z,7.93
2019-05-06T19:00:35.914Z,7.96
2019-05-06T19:03:05.887Z,7.95
2019-05-06T19:05:37.543Z,7.99
2019-05-06T19:08:24.446Z,8.00
2019-05-06T19:10:54.268Z,7.87
2019-05-06T19:13:24.192Z,7.95
2019-05-06T19:15:54.026Z,7.97
2019-05-06T19:18:23.933Z,8.06
2019-05-06T19:20:53.938Z,7.99
2019-05-06T19:23:23.847Z,7.87
2019-05-06T19:25:54.827Z,7.76
2019-05-06T19:28:24.755Z,7.85
2019-05-06T19:30:54.786Z,7.90
2019-05-06T19:33:24.854Z,7.87
2019-05-06T19:35:54.731Z,7.88
2019-05-06T19:38:24.746Z,7.85
2019-05-06T19:40:54.601Z,7.71
2019-05-06T19:43:24.530Z,7.73
2019-05-06T19:45:54.534Z,7.77
2019-05-06T19:48:24.700Z,7.68
2019-05-06T19:50:54.655Z,7.71
2019-05-06T19:53:24.619Z,7.73
2019-05-06T19:55:54.529Z,7.72
2019-05-06T19:58:24.356Z,7.70
2019-05-06T20:00:56.406Z,7.66
2019-05-06T20:03:26.220Z,7.86
2019-05-06T20:06:33.311Z,8.11
2019-05-06T20:09:24.187Z,8.09
2019-05-06T20:11:56.550Z,8.17
2019-05-06T20:14:26.453Z,7.96
2019-05-06T20:16:56.461Z,7.84
2019-05-06T20:19:30.645Z,7.74
2019-05-06T20:21:57.963Z,7.72
2019-05-06T20:24:27.853Z,7.62
2019-05-06T20:26:57.754Z,7.76
2019-05-06T20:29:27.747Z,7.74
2019-05-06T20:31:57.715Z,7.64
2019-05-06T20:34:27.529Z,7.67
2019-05-06T20:36:57.415Z,7.62
2019-05-06T20:39:27.314Z,7.61
2019-05-06T20:41:57.298Z,7.60
2019-05-06T20:44:27.130Z,7.56
2019-05-06T20:46:57.130Z,7.54
2019-05-06T20:49:27.105Z,7.43
2019-05-06T20:51:56.990Z,7.47
2019-05-06T20:54:26.922Z,7.40
2019-05-06T20:56:56.864Z,7.17
2019-05-06T20:59:26.774Z,7.50
2019-05-06T21:01:56.762Z,7.78
2019-05-06T21:04:26.653Z,8.04
2019-05-06T21:06:56.545Z,8.19
2019-05-06T21:09:26.453Z,8.21
2019-05-06T21:11:56.354Z,8.19
2019-05-06T21:14:26.335Z,8.32
2019-05-06T21:16:56.235Z,8.28
2019-05-06T21:19:26.143Z,8.47
2019-05-06T21:21:56.094Z,8.31
2019-05-06T21:24:26.068Z,8.76
2019-05-06T21:26:56.033Z,8.34
2019-05-06T21:29:26.033Z,8.27
2019-05-06T21:31:56.216Z,8.34
2019-05-06T21:34:26.319Z,8.28
2019-05-06T21:36:56.335Z,8.16
2019-05-06T21:39:26.263Z,8.28
2019-05-06T21:41:56.329Z,8.23
2019-05-06T21:44:26.193Z,8.22
2019-05-06T21:46:56.094Z,8.08
2019-05-06T21:49:25.953Z,8.06
2019-05-06T21:51:55.875Z,7.85
2019-05-06T21:54:25.711Z,7.96
2019-05-06T21:56:55.677Z,8.02
2019-05-06T21:59:25.656Z,7.95
2019-05-06T22:01:55.635Z,7.71
2019-05-06T22:04:25.615Z,7.61
2019-05-06T22:06:55.538Z,7.73
2019-05-06T22:09:25.375Z,7.69
2019-05-06T22:11:55.290Z,7.60
2019-05-06T22:14:25.298Z,7.54
2019-05-06T22:16:55.119Z,7.57
2019-05-06T22:19:25.109Z,7.70
2019-05-06T22:22:06.171Z,7.89
2019-05-06T22:24:46.517Z,7.92
2019-05-06T22:27:16.982Z,7.80
2019-05-06T22:29:47.168Z,7.56
2019-05-06T22:32:17.162Z,7.61
2019-05-06T22:34:47.072Z,7.82
2019-05-06T22:37:16.967Z,7.65
2019-05-06T22:39:46.983Z,7.56
2019-05-06T22:42:16.878Z,7.47
2019-05-06T22:44:46.708Z,7.38
2019-05-06T22:47:17.750Z,8.02
2019-05-06T22:49:47.721Z,8.65
2019-05-06T22:52:17.534Z,9.09
2019-05-06T22:54:47.470Z,9.45
2019-05-06T22:57:17.366Z,9.21
2019-05-06T22:59:47.188Z,8.86
2019-05-06T23:02:32.443Z,9.16
2019-05-06T23:05:04.516Z,9.21
2019-05-06T23:07:34.323Z,8.85
2019-05-06T23:10:04.976Z,8.97
2019-05-06T23:12:35.081Z,8.85
2019-05-06T23:15:06.245Z,8.80
2019-05-06T23:17:36.110Z,8.91
2019-05-06T23:20:06.469Z,9.09
2019-05-06T23:22:36.287Z,9.29
2019-05-06T23:25:06.516Z,9.33
2019-05-06T23:27:36.337Z,9.04
2019-05-06T23:30:07.084Z,9.17
2019-05-06T23:32:36.987Z,9.17
2019-05-06T23:35:07.281Z,9.21
2019-05-06T23:38:13.453Z,9.31
2019-05-06T23:41:21.808Z,9.09
2019-05-06T23:44:27.698Z,9.26
2019-05-06T23:47:34.380Z,9.48
2019-05-06T23:50:42.702Z,9.42
2019-05-06T23:53:48.021Z,9.16
2019-05-06T23:56:44.990Z,9.03
2019-05-06T23:59:16.080Z,9.10
